createdAt,value
2019-05-21T00:01:07.798Z,84.47
2019-05-21T00:03:36.817Z,78.10
2019-05-21T00:06:06.225Z,72.80
2019-05-21T00:08:35.514Z,69.50
2019-05-21T00:11:04.715Z,64.17
2019-05-21T00:13:34.017Z,80.20
2019-05-21T00:16:03.043Z,82.83
2019-05-21T00:18:33.116Z,74.83
2019-05-21T00:21:02.132Z,74.17
2019-05-21T00:23:31.148Z,72.10
2019-05-21T00:25:59.918Z,76.13
2019-05-21T00:28:42.505Z,74.57
2019-05-21T00:31:47.804Z,83.63
2019-05-21T00:34:52.997Z,71.87
2019-05-21T00:37:57.869Z,71.70
2019-05-21T00:41:03.053Z,65.53
2019-05-21T00:43:49.632Z,63.03
2019-05-21T00:46:18.550Z,72.23
2019-05-21T00:48:47.425Z,65.23
2019-05-21T00:51:16.522Z,63.50
2019-05-21T00:53:45.814Z,62.40
2019-05-21T00:56:14.842Z,68.10
2019-05-21T00:58:43.751Z,57.53
2019-05-21T01:01:13.161Z,64.47
2019-05-21T01:03:43.405Z,60.90
2019-05-21T01:06:12.309Z,55.23
2019-05-21T01:08:41.406Z,53.77
2019-05-21T01:11:10.193Z,54.13
2019-05-21T01:13:39.218Z,55.30
2019-05-21T01:16:07.999Z,47.27
2019-05-21T01:18:37.353Z,51.10
2019-05-21T01:21:06.325Z,48.43
2019-05-21T01:23:35.542Z,58.17
2019-05-21T01:26:05.074Z,49.93
2019-05-21T01:28:34.161Z,46.13
2019-05-21T01:31:03.208Z,48.23
2019-05-21T01:33:32.506Z,50.13
2019-05-21T01:36:01.319Z,42.27
2019-05-21T01:38:30.081Z,39.57
2019-05-21T01:40:59.369Z,41.93
2019-05-21T01:43:28.429Z,40.93
2019-05-21T01:45:57.453Z,42.70
2019-05-21T01:48:26.501Z,44.40
2019-05-21T01:50:55.537Z,40.90
2019-05-21T01:53:24.404Z,38.00
2019-05-21T01:55:53.782Z,36.90
2019-05-21T01:58:22.579Z,42.10
2019-05-21T02:00:51.961Z,35.30
2019-05-21T02:03:21.383Z,36.33
2019-05-21T02:05:50.725Z,32.10
2019-05-21T02:08:19.538Z,32.77
2019-05-21T02:10:48.373Z,31.83
2019-05-21T02:13:17.177Z,31.67
2019-05-21T02:15:46.529Z,26.57
2019-05-21T02:18:15.363Z,30.53
2019-05-21T02:20:44.374Z,24.93
2019-05-21T02:23:13.154Z,26.37
2019-05-21T02:25:42.922Z,24.13
2019-05-21T02:28:11.958Z,24.30
2019-05-21T02:30:40.980Z,23.83
2019-05-21T02:33:10.059Z,20.27
2019-05-21T02:35:53.610Z,20.20
2019-05-21T02:38:09.491Z,20.00
2019-05-21T02:40:38.298Z,19.07
2019-05-21T02:43:07.407Z,23.37
2019-05-21T02:45:36.191Z,16.23
2019-05-21T02:48:05.161Z,20.13
2019-05-21T02:50:34.001Z,15.23
2019-05-21T02:53:03.021Z,14.63
2019-05-21T02:55:51.065Z,16.50
2019-05-21T02:58:20.243Z,19.00
2019-05-21T03:01:01.737Z,15.53
2019-05-21T03:03:31.989Z,16.20
2019-05-21T03:06:13.335Z,14.23
2019-05-21T03:08:31.773Z,15.53
2019-05-21T03:11:00.571Z,14.57
2019-05-21T03:13:29.470Z,14.67
2019-05-21T03:15:58.403Z,14.70
2019-05-21T03:18:27.165Z,11.80
2019-05-21T03:20:56.034Z,13.53
2019-05-21T03:23:24.845Z,11.90
2019-05-21T03:25:53.718Z,13.10
2019-05-21T03:28:22.561Z,13.73
2019-05-21T03:30:51.407Z,12.20
2019-05-21T03:33:20.364Z,14.13
2019-05-21T03:35:49.611Z,9.13
2019-05-21T03:38:18.902Z,9.70
2019-05-21T03:40:47.929Z,11.50
2019-05-21T03:43:16.758Z,8.20
2019-05-21T03:45:45.884Z,8.97
2019-05-21T03:48:14.737Z,8.73
2019-05-21T03:50:43.507Z,9.27
2019-05-21T03:53:18.587Z,8.27
2019-05-21T03:55:47.622Z,11.77
2019-05-21T03:58:16.666Z,15.83
2019-05-21T04:00:45.540Z,9.70
2019-05-21T04:03:14.642Z,7.57
2019-05-21T04:05:43.438Z,6.50
2019-05-21T04:08:12.478Z,6.87
2019-05-21T04:10:41.570Z,7.70
2019-05-21T04:13:10.861Z,7.10
2019-05-21T04:16:15.874Z,8.13
2019-05-21T04:18:52.546Z,12.23
2019-05-21T04:21:21.574Z,10.17
2019-05-21T04:23:50.983Z,6.63
2019-05-21T04:26:20.183Z,8.00
2019-05-21T04:28:49.652Z,8.93
2019-05-21T04:31:18.681Z,6.80
2019-05-21T04:33:47.967Z,6.87
2019-05-21T04:36:16.758Z,4.97
2019-05-21T04:38:45.861Z,5.30
2019-05-21T04:41:14.674Z,5.60
2019-05-21T04:43:43.467Z,5.10
2019-05-21T04:46:12.271Z,5.00
2019-05-21T04:48:41.209Z,6.33
2019-05-21T04:51:13.560Z,8.93
2019-05-21T04:53:40.550Z,7.20
2019-05-21T04:56:09.398Z,2.83
2019-05-21T04:58:38.196Z,5.10
2019-05-21T05:01:07.374Z,4.80
2019-05-21T05:03:36.513Z,6.00
2019-05-21T05:06:05.688Z,2.63
2019-05-21T05:08:34.763Z,3.40
2019-05-21T05:11:03.574Z,2.50
2019-05-21T05:13:32.911Z,2.67
2019-05-21T05:16:04.055Z,5.20
2019-05-21T05:18:32.802Z,4.70
2019-05-21T05:21:01.593Z,3.10
2019-05-21T05:23:30.921Z,2.40
2019-05-21T05:26:00.109Z,6.33
2019-05-21T05:28:28.989Z,2.07
2019-05-21T05:30:58.382Z,2.50
2019-05-21T05:33:27.450Z,2.23
2019-05-21T05:35:56.327Z,3.60
2019-05-21T05:38:25.225Z,2.30
2019-05-21T05:40:54.104Z,3.50
2019-05-21T05:43:23.159Z,3.43
2019-05-21T05:45:52.218Z,2.63
2019-05-21T05:48:21.549Z,4.50
2019-05-21T05:50:52.918Z,2.80
2019-05-21T05:53:21.961Z,2.00
2019-05-21T05:55:51.003Z,3.73
2019-05-21T05:58:19.804Z,3.30
2019-05-21T06:00:57.147Z,2.40
2019-05-21T06:03:27.942Z,4.17
2019-05-21T06:05:56.825Z,5.00
2019-05-21T06:08:25.931Z,4.53
2019-05-21T06:10:54.802Z,3.53
2019-05-21T06:13:23.581Z,2.80
2019-05-21T06:15:52.381Z,4.87
2019-05-21T06:18:21.401Z,2.90
2019-05-21T06:20:50.207Z,2.87
2019-05-21T06:23:18.989Z,3.03
2019-05-21T06:25:47.843Z,3.27
2019-05-21T06:28:16.656Z,3.63
2019-05-21T06:30:45.426Z,2.80
2019-05-21T06:33:14.229Z,5.77
2019-05-21T06:35:43.048Z,2.50
2019-05-21T06:38:17.573Z,4.00
2019-05-21T06:40:42.429Z,3.07
2019-05-21T06:43:19.145Z,3.77
2019-05-21T06:45:48.031Z,3.57
2019-05-21T06:48:17.240Z,3.57
2019-05-21T06:50:46.051Z,4.80
2019-05-21T06:53:15.404Z,4.20
2019-05-21T06:55:45.530Z,4.30
2019-05-21T06:58:22.579Z,5.40
2019-05-21T07:00:51.445Z,4.60
2019-05-21T07:03:21.059Z,7.40
2019-05-21T07:05:59.023Z,3.13
2019-05-21T07:08:33.565Z,7.20
2019-05-21T07:10:51.570Z,8.03
2019-05-21T07:13:20.622Z,5.10
2019-05-21T07:15:49.409Z,6.13
2019-05-21T07:18:18.212Z,7.97
2019-05-21T07:20:48.550Z,3.27
2019-05-21T07:23:17.965Z,2.83
2019-05-21T07:25:46.973Z,3.67
2019-05-21T07:28:15.758Z,6.50
2019-05-21T07:30:44.632Z,5.40
2019-05-21T07:33:13.506Z,3.20
2019-05-21T07:35:42.636Z,4.13
2019-05-21T07:38:11.706Z,3.50
2019-05-21T07:40:40.578Z,3.87
2019-05-21T07:43:09.400Z,6.10
2019-05-21T07:45:38.461Z,6.47
2019-05-21T07:48:07.303Z,3.57
2019-05-21T07:50:36.398Z,3.70
2019-05-21T07:53:05.558Z,2.80
2019-05-21T07:55:34.668Z,8.03
2019-05-21T07:58:03.942Z,4.33
2019-05-21T08:00:32.834Z,3.90
2019-05-21T08:03:01.653Z,4.27
2019-05-21T08:05:30.708Z,4.07
2019-05-21T08:07:59.590Z,3.00
2019-05-21T08:10:28.607Z,3.10
2019-05-21T08:12:57.426Z,2.87
2019-05-21T08:15:26.410Z,5.97
2019-05-21T08:17:55.878Z,2.73
2019-05-21T08:20:25.710Z,2.40
2019-05-21T08:22:54.587Z,2.40
2019-05-21T08:25:23.519Z,2.80
2019-05-21T08:27:52.365Z,2.27
2019-05-21T08:30:21.779Z,2.00
2019-05-21T08:32:50.891Z,5.20
2019-05-21T08:35:19.881Z,4.23
2019-05-21T08:37:49.014Z,2.27
2019-05-21T08:40:18.425Z,1.40
2019-05-21T08:42:47.491Z,2.20
2019-05-21T08:45:16.669Z,2.00
2019-05-21T08:47:45.477Z,1.77
2019-05-21T08:50:14.798Z,5.17
2019-05-21T08:52:43.658Z,2.37
2019-05-21T08:55:12.646Z,2.83
2019-05-21T08:57:41.806Z,2.07
2019-05-21T09:00:13.358Z,2.23
2019-05-21T09:02:42.537Z,2.00
2019-05-21T09:05:12.035Z,2.20
2019-05-21T09:07:40.962Z,2.93
2019-05-21T09:10:10.267Z,1.50
2019-05-21T09:12:39.306Z,3.60
2019-05-21T09:15:09.250Z,1.97
2019-05-21T09:17:44.258Z,1.33
2019-05-21T09:20:14.336Z,1.60
2019-05-21T09:22:43.173Z,4.53
2019-05-21T09:25:12.165Z,1.80
2019-05-21T09:27:41.094Z,1.60
2019-05-21T09:30:11.073Z,3.70
2019-05-21T09:32:39.946Z,2.00
2019-05-21T09:35:09.162Z,2.20
2019-05-21T09:37:38.292Z,1.40
2019-05-21T09:40:07.837Z,1.77
2019-05-21T09:42:36.941Z,1.90
2019-05-21T09:45:07.166Z,1.90
2019-05-21T09:47:36.043Z,2.33
2019-05-21T09:50:05.663Z,2.93
2019-05-21T09:52:34.632Z,3.40
2019-05-21T09:55:03.455Z,5.43
2019-05-21T09:57:51.384Z,5.20
2019-05-21T10:00:49.402Z,3.13
2019-05-21T10:03:20.285Z,2.70
2019-05-21T10:05:49.399Z,2.30
2019-05-21T10:08:18.413Z,2.53
2019-05-21T10:10:47.517Z,3.20
2019-05-21T10:13:16.377Z,3.50
2019-05-21T10:15:45.238Z,3.37
2019-05-21T10:18:14.150Z,3.53
2019-05-21T10:20:43.149Z,5.90
2019-05-21T10:23:12.006Z,4.53
2019-05-21T10:25:40.885Z,4.80
2019-05-21T10:28:09.914Z,4.97
2019-05-21T10:30:38.722Z,4.63
2019-05-21T10:33:07.934Z,7.53
2019-05-21T10:35:37.731Z,8.00
2019-05-21T10:38:06.873Z,4.57
2019-05-21T10:40:35.845Z,4.20
2019-05-21T10:43:04.782Z,6.30
2019-05-21T10:45:34.785Z,5.20
2019-05-21T10:48:04.861Z,4.90
2019-05-21T10:50:33.709Z,4.10
2019-05-21T10:53:02.575Z,4.60
2019-05-21T10:55:31.440Z,4.97
2019-05-21T10:58:00.265Z,4.03
2019-05-21T11:00:29.802Z,7.03
2019-05-21T11:03:17.793Z,5.97
2019-05-21T11:05:50.131Z,5.20
2019-05-21T11:08:23.956Z,5.10
2019-05-21T11:10:49.675Z,7.57
2019-05-21T11:13:18.562Z,5.87
2019-05-21T11:15:48.170Z,7.40
2019-05-21T11:18:17.287Z,5.67
2019-05-21T11:20:46.273Z,8.07
2019-05-21T11:23:15.133Z,4.30
2019-05-21T11:25:43.917Z,6.00
2019-05-21T11:28:13.038Z,4.37
2019-05-21T11:30:41.825Z,4.30
2019-05-21T11:33:10.756Z,3.33
2019-05-21T11:35:39.620Z,4.90
2019-05-21T11:38:08.498Z,5.13
2019-05-21T11:40:37.601Z,4.30
2019-05-21T11:43:06.715Z,3.77
2019-05-21T11:45:35.891Z,4.30
2019-05-21T11:48:05.069Z,5.67
2019-05-21T11:50:34.191Z,3.40
2019-05-21T11:53:03.656Z,4.87
2019-05-21T11:55:32.705Z,4.17
2019-05-21T11:58:01.498Z,4.80
2019-05-21T12:00:30.546Z,5.77
2019-05-21T12:02:59.447Z,6.17
2019-05-21T12:05:28.265Z,5.70
2019-05-21T12:07:57.723Z,7.33
2019-05-21T12:10:26.813Z,7.13
2019-05-21T12:12:55.710Z,12.30
2019-05-21T12:15:24.867Z,8.90
2019-05-21T12:17:53.674Z,18.13
2019-05-21T12:20:36.115Z,7.63
2019-05-21T12:22:53.241Z,7.60
2019-05-21T12:25:22.158Z,7.17
2019-05-21T12:27:50.964Z,8.40
2019-05-21T12:30:20.383Z,8.80
2019-05-21T12:32:49.274Z,7.87
2019-05-21T12:35:18.222Z,8.37
2019-05-21T12:37:47.279Z,7.73
2019-05-21T12:40:17.368Z,8.00
2019-05-21T12:42:46.489Z,8.83
2019-05-21T12:45:15.343Z,9.93
2019-05-21T12:47:44.298Z,7.93
2019-05-21T12:50:13.806Z,14.60
2019-05-21T12:52:42.588Z,28.53
2019-05-21T12:55:12.856Z,12.10
2019-05-21T12:57:42.337Z,9.67
2019-05-21T13:00:13.492Z,11.30
2019-05-21T13:02:42.662Z,11.93
2019-05-21T13:05:11.929Z,12.03
2019-05-21T13:07:41.466Z,12.73
2019-05-21T13:10:11.417Z,10.80
2019-05-21T13:12:40.300Z,11.10
2019-05-21T13:15:09.701Z,11.27
2019-05-21T13:17:38.551Z,11.40
2019-05-21T13:20:08.401Z,12.27
2019-05-21T13:22:38.170Z,11.60
2019-05-21T13:25:07.730Z,10.80
2019-05-21T13:27:36.923Z,10.87
2019-05-21T13:30:06.264Z,11.70
2019-05-21T13:32:35.106Z,13.03
2019-05-21T13:35:04.565Z,11.03
2019-05-21T13:37:33.489Z,10.40
2019-05-21T13:40:02.341Z,9.83
2019-05-21T13:42:31.212Z,11.50
2019-05-21T13:45:00.090Z,8.93
2019-05-21T13:47:28.942Z,9.47
2019-05-21T13:49:58.010Z,11.00
2019-05-21T13:52:26.909Z,8.70
2019-05-21T13:54:55.786Z,18.30
2019-05-21T13:57:24.570Z,13.00
2019-05-21T13:59:53.438Z,8.70
2019-05-21T14:02:22.415Z,12.53
2019-05-21T14:04:51.324Z,8.97
2019-05-21T14:07:20.191Z,8.47
2019-05-21T14:10:10.777Z,9.30
2019-05-21T14:12:20.238Z,9.20
2019-05-21T14:14:49.163Z,7.70
2019-05-21T14:17:18.298Z,11.53
2019-05-21T14:19:47.323Z,9.20
2019-05-21T14:22:16.208Z,8.70
2019-05-21T14:24:45.082Z,8.30
2019-05-21T14:27:14.310Z,10.43
2019-05-21T14:29:43.095Z,10.43
2019-05-21T14:32:11.966Z,16.20
2019-05-21T14:34:41.093Z,8.00
2019-05-21T14:37:09.911Z,9.20
2019-05-21T14:39:39.041Z,7.20
2019-05-21T14:42:07.898Z,8.20
2019-05-21T14:44:36.846Z,9.20
2019-05-21T14:47:08.011Z,11.33
2019-05-21T14:49:36.819Z,9.50
2019-05-21T14:52:06.067Z,8.47
2019-05-21T14:54:35.089Z,10.83
2019-05-21T14:57:07.874Z,7.80
2019-05-21T14:59:36.942Z,8.73
2019-05-21T15:02:05.987Z,8.90
2019-05-21T15:04:35.178Z,6.97
2019-05-21T15:07:04.659Z,8.20
2019-05-21T15:09:33.890Z,8.40
2019-05-21T15:12:03.600Z,9.00
2019-05-21T15:14:33.350Z,8.90
2019-05-21T15:17:02.314Z,10.30
2019-05-21T15:19:31.148Z,8.17
2019-05-21T15:21:59.930Z,7.83
2019-05-21T15:24:28.842Z,9.07
2019-05-21T15:26:57.963Z,9.33
2019-05-21T15:29:26.745Z,9.00
2019-05-21T15:31:55.515Z,10.67
2019-05-21T15:34:24.846Z,7.70
2019-05-21T15:36:54.083Z,10.63
2019-05-21T15:39:24.268Z,8.37
2019-05-21T15:41:53.621Z,8.53
2019-05-21T15:44:22.409Z,11.20
2019-05-21T15:46:52.833Z,10.00
2019-05-21T15:49:35.004Z,11.80
2019-05-21T15:51:52.307Z,12.70
2019-05-21T15:54:21.061Z,10.40
2019-05-21T15:56:50.063Z,11.43
2019-05-21T15:59:18.969Z,11.10
2019-05-21T16:01:48.122Z,10.00
2019-05-21T16:04:17.193Z,14.23
2019-05-21T16:06:45.941Z,10.13
2019-05-21T16:09:14.844Z,9.30
2019-05-21T16:11:44.143Z,9.17
2019-05-21T16:14:13.197Z,14.47
2019-05-21T16:16:42.563Z,10.53
2019-05-21T16:19:11.455Z,10.83
2019-05-21T16:21:40.742Z,9.70
2019-05-21T16:24:09.534Z,9.97
2019-05-21T16:26:38.555Z,14.53
2019-05-21T16:29:07.665Z,10.40
2019-05-21T16:31:36.528Z,9.93
2019-05-21T16:34:05.720Z,12.67
2019-05-21T16:36:34.842Z,10.40
2019-05-21T16:39:05.240Z,11.50
2019-05-21T16:41:44.237Z,12.70
2019-05-21T16:44:04.765Z,11.67
2019-05-21T16:46:33.574Z,16.00
2019-05-21T16:49:03.193Z,16.97
2019-05-21T16:51:32.985Z,11.10
2019-05-21T16:54:01.767Z,12.50
2019-05-21T16:56:30.898Z,12.10
2019-05-21T16:58:59.720Z,14.50
2019-05-21T17:01:29.059Z,11.90
2019-05-21T17:04:00.148Z,11.17
2019-05-21T17:06:28.657Z,14.50
2019-05-21T17:08:57.745Z,13.07
2019-05-21T17:11:26.825Z,11.43
2019-05-21T17:13:56.384Z,12.90
2019-05-21T17:16:25.417Z,10.97
2019-05-21T17:18:54.918Z,13.50
2019-05-21T17:21:40.282Z,12.20
2019-05-21T17:24:09.608Z,10.03
2019-05-21T17:26:38.694Z,12.73
2019-05-21T17:29:08.273Z,11.23
2019-05-21T17:31:37.046Z,13.53
2019-05-21T17:34:07.169Z,15.60
2019-05-21T17:36:36.173Z,14.70
2019-05-21T17:39:06.485Z,13.03
2019-05-21T17:41:35.409Z,11.20
2019-05-21T17:44:04.323Z,9.67
2019-05-21T17:46:33.869Z,13.03
2019-05-21T17:49:02.962Z,10.80
2019-05-21T17:51:32.501Z,11.53
2019-05-21T17:54:01.578Z,12.43
2019-05-21T17:56:30.348Z,11.40
2019-05-21T17:58:59.204Z,13.47
2019-05-21T18:01:28.513Z,15.37
2019-05-21T18:03:57.355Z,13.60
2019-05-21T18:06:26.444Z,12.53
2019-05-21T18:08:55.393Z,15.00
2019-05-21T18:11:24.294Z,12.57
2019-05-21T18:13:53.138Z,13.37
2019-05-21T18:16:21.982Z,12.50
2019-05-21T18:18:51.289Z,14.83
2019-05-21T18:21:20.531Z,17.70
2019-05-21T18:23:49.313Z,12.73
2019-05-21T18:26:18.808Z,15.37
2019-05-21T18:28:47.973Z,12.13
2019-05-21T18:31:17.512Z,13.23
2019-05-21T18:33:46.596Z,14.17
2019-05-21T18:36:15.365Z,12.87
2019-05-21T18:38:44.141Z,13.90
2019-05-21T18:41:13.181Z,14.80
2019-05-21T18:43:42.510Z,15.33
2019-05-21T18:46:11.294Z,17.70
2019-05-21T18:48:40.302Z,14.73
2019-05-21T18:51:09.429Z,14.47
2019-05-21T18:53:38.193Z,14.20
2019-05-21T18:56:07.202Z,14.00
2019-05-21T18:58:36.057Z,17.90
2019-05-21T19:01:04.944Z,16.43
2019-05-21T19:03:39.765Z,15.30
2019-05-21T19:06:08.597Z,13.23
2019-05-21T19:08:37.458Z,14.53
2019-05-21T19:11:06.593Z,14.40
2019-05-21T19:13:35.785Z,15.33
2019-05-21T19:16:04.978Z,18.60
2019-05-21T19:18:33.907Z,15.37
2019-05-21T19:21:02.996Z,12.40
2019-05-21T19:23:32.997Z,13.83
2019-05-21T19:26:02.149Z,15.50
2019-05-21T19:28:31.326Z,15.93
2019-05-21T19:31:00.337Z,18.90
2019-05-21T19:33:31.329Z,16.23
2019-05-21T19:36:00.684Z,23.13
2019-05-21T19:38:29.709Z,22.20
2019-05-21T19:40:58.921Z,18.40
2019-05-21T19:43:28.272Z,20.73
2019-05-21T19:45:57.116Z,22.80
2019-05-21T19:48:25.944Z,20.70
2019-05-21T19:50:55.225Z,18.87
2019-05-21T19:53:24.558Z,20.87
2019-05-21T19:55:54.174Z,19.87
2019-05-21T19:58:23.346Z,19.67
2019-05-21T20:00:55.342Z,19.33
2019-05-21T20:03:24.694Z,21.43
2019-05-21T20:05:54.442Z,22.53
2019-05-21T20:08:23.616Z,22.47
2019-05-21T20:10:52.493Z,23.70
2019-05-21T20:13:32.222Z,23.00
2019-05-21T20:15:53.024Z,22.90
2019-05-21T20:18:22.945Z,23.70
2019-05-21T20:20:52.708Z,24.30
2019-05-21T20:23:21.872Z,20.57
2019-05-21T20:25:56.561Z,22.47
2019-05-21T20:28:22.437Z,22.50
2019-05-21T20:30:51.738Z,23.67
2019-05-21T20:33:21.222Z,25.87
2019-05-21T20:35:52.583Z,20.90
2019-05-21T20:38:23.470Z,25.90
2019-05-21T20:40:53.117Z,21.60
2019-05-21T20:43:22.157Z,21.70
2019-05-21T20:45:51.691Z,20.93
2019-05-21T20:48:22.176Z,22.13
2019-05-21T20:50:51.300Z,23.30
2019-05-21T20:53:20.315Z,24.43
2019-05-21T20:55:49.500Z,21.50
2019-05-21T20:58:18.747Z,22.10
2019-05-21T21:00:52.167Z,32.50
2019-05-21T21:03:21.774Z,25.20
2019-05-21T21:05:50.925Z,22.70
2019-05-21T21:08:20.518Z,22.83
2019-05-21T21:10:50.164Z,22.23
2019-05-21T21:13:19.132Z,19.87
2019-05-21T21:15:48.989Z,21.57
2019-05-21T21:18:18.182Z,22.60
2019-05-21T21:20:47.365Z,22.80
2019-05-21T21:23:18.399Z,19.97
2019-05-21T21:25:47.369Z,25.57
2019-05-21T21:28:16.634Z,23.43
2019-05-21T21:30:45.629Z,20.87
2019-05-21T21:33:15.022Z,22.33
2019-05-21T21:35:44.050Z,24.30
2019-05-21T21:38:16.057Z,21.17
2019-05-21T21:40:45.071Z,23.00
2019-05-21T21:43:14.453Z,22.70
2019-05-21T21:45:43.626Z,51.43
2019-05-21T21:48:14.865Z,24.53
2019-05-21T21:50:43.792Z,29.73
2019-05-21T21:53:13.013Z,28.60
2019-05-21T21:55:42.278Z,21.80
2019-05-21T21:58:11.208Z,20.37
2019-05-21T22:01:17.976Z,20.47
2019-05-21T22:03:47.230Z,20.40
2019-05-21T22:06:18.103Z,21.77
2019-05-21T22:08:47.385Z,21.90
2019-05-21T22:11:17.446Z,23.07
2019-05-21T22:13:47.188Z,26.03
2019-05-21T22:16:16.389Z,22.30
2019-05-21T22:18:45.881Z,20.43
2019-05-21T22:21:14.792Z,23.70
2019-05-21T22:23:44.216Z,25.27
2019-05-21T22:26:13.075Z,21.30
2019-05-21T22:28:42.436Z,23.07
2019-05-21T22:31:11.362Z,22.50
2019-05-21T22:33:40.541Z,24.80
2019-05-21T22:36:09.962Z,24.60
2019-05-21T22:38:39.040Z,21.73
2019-05-21T22:41:08.133Z,22.50
2019-05-21T22:43:37.622Z,22.17
2019-05-21T22:46:06.749Z,24.93
2019-05-21T22:48:35.837Z,22.73
2019-05-21T22:51:05.107Z,25.33
2019-05-21T22:53:34.133Z,28.00
2019-05-21T22:56:03.101Z,26.63
2019-05-21T22:58:31.872Z,28.57
2019-05-21T23:01:02.514Z,26.13
2019-05-21T23:03:31.857Z,27.07
2019-05-21T23:19:24.140Z,24.73
2019-05-21T23:25:20.791Z,21.40
2019-05-21T23:27:49.858Z,28.80
2019-05-21T23:30:19.440Z,28.63
2019-05-21T23:32:48.716Z,27.53
2019-05-21T23:35:18.253Z,26.07
2019-05-21T23:37:47.883Z,24.90
2019-05-21T23:40:17.159Z,24.33
2019-05-21T23:42:46.125Z,20.40
2019-05-21T23:45:16.343Z,23.50
2019-05-21T23:47:45.657Z,26.43
2019-05-21T23:50:15.048Z,24.77
2019-05-21T23:52:44.246Z,29.70
2019-05-21T23:55:14.463Z,26.30
2019-05-21T23:57:43.818Z,22.63
